Time;durP1;ratioP1;P1;durP2;ratioP2;P2;SDS_P1;SDS_P2;PMS_P1;PMS_P2;Temp;Humidity;BMP_temperature;BMP_pressure;BME280_temperature;BME280_humidity;BME280_pressure;Samples;Min_cycle;Max_cycle;Signal;HPM_P1;HPM_P2
2022/01/22 00:00:30;;;;;;;11.48;5.80;;;1.80;92.30;;;;;;5075199;28;20048;-66
2022/01/22 00:02:56;;;;;;;9.77;5.40;;;1.80;92.30;;;;;;5074893;28;20331;-66
2022/01/22 00:05:22;;;;;;;8.68;5.70;;;1.80;92.40;;;;;;5074689;28;20059;-66
2022/01/22 00:07:49;;;;;;;7.72;5.53;;;1.80;92.50;;;;;;5074286;28;20028;-66
2022/01/22 00:10:17;;;;;;;11.77;6.13;;;1.80;92.60;;;;;;5074927;28;20092;-66
2022/01/22 00:15:13;;;;;;;10.98;6.50;;;1.90;93.10;;;;;;5074825;28;20050;-66
2022/01/22 00:17:40;;;;;;;9.63;6.47;;;1.90;93.30;;;;;;5074319;28;20032;-66
2022/01/22 00:20:07;;;;;;;14.68;6.65;;;1.90;93.60;;;;;;5074715;28;20129;-66
2022/01/22 00:22:35;;;;;;;11.95;7.10;;;1.90;94.00;;;;;;5074673;28;20116;-67
2022/01/22 00:25:01;;;;;;;12.93;6.88;;;1.90;94.10;;;;;;5074126;28;20033;-67
2022/01/22 00:27:28;;;;;;;10.98;6.50;;;1.90;94.30;;;;;;5074678;28;20027;-66
2022/01/22 00:29:54;;;;;;;12.02;5.95;;;1.90;94.60;;;;;;5074030;28;20154;-66
2022/01/22 00:32:21;;;;;;;10.20;6.13;;;1.90;94.40;;;;;;5074290;28;20024;-67
2022/01/22 00:34:47;;;;;;;11.25;6.25;;;1.90;94.50;;;;;;5073798;28;20033;-66
2022/01/22 00:37:13;;;;;;;11.35;6.55;;;1.90;94.60;;;;;;5074454;28;20374;-67
2022/01/22 00:39:38;;;;;;;11.57;6.60;;;1.90;94.90;;;;;;5074320;28;20444;-67
2022/01/22 00:42:12;;;;;;;12.45;6.75;;;1.90;95.30;;;;;;5074197;28;20111;-67
2022/01/22 00:44:39;;;;;;;9.27;6.78;;;1.90;95.50;;;;;;5074398;28;20028;-66
2022/01/22 00:47:05;;;;;;;11.40;6.80;;;1.90;95.90;;;;;;5073979;28;20035;-67
2022/01/22 00:49:32;;;;;;;10.80;6.80;;;1.90;96.30;;;;;;5074012;28;20037;-67
2022/01/22 00:51:58;;;;;;;11.95;6.82;;;1.90;96.70;;;;;;5073438;28;20434;-67
2022/01/22 00:54:24;;;;;;;11.65;7.43;;;1.90;96.80;;;;;;5073924;28;20025;-67
2022/01/22 00:56:50;;;;;;;11.73;6.82;;;1.90;97.10;;;;;;5073188;28;20051;-68
2022/01/22 00:59:16;;;;;;;10.75;6.43;;;1.90;97.30;;;;;;5073664;28;20036;-67
2022/01/22 01:01:42;;;;;;;8.18;5.90;;;1.90;97.60;;;;;;5055803;28;20382;-67
2022/01/22 01:04:10;;;;;;;8.93;5.65;;;1.90;97.80;;;;;;5073939;28;20027;-67
2022/01/22 01:06:36;;;;;;;8.02;5.53;;;1.90;98.00;;;;;;5073782;28;20021;-67
2022/01/22 01:09:05;;;;;;;6.57;4.68;;;1.90;98.00;;;;;;5073282;28;20428;-67
2022/01/22 01:11:33;;;;;;;7.47;4.70;;;1.90;98.30;;;;;;5073740;28;20025;-67
2022/01/22 01:14:02;;;;;;;8.55;4.63;;;1.90;99.10;;;;;;5073047;28;20016;-67
2022/01/22 01:32:56;;;;;;;5.40;3.75;;;1.90;99.90;;;;;;5072983;28;20093;-67
2022/01/22 01:35:23;;;;;;;6.45;3.63;;;1.90;99.90;;;;;;5073339;28;20029;-67
2022/01/22 01:37:51;;;;;;;9.38;3.80;;;1.90;99.90;;;;;;5072549;28;20036;-66
2022/01/22 01:40:20;;;;;;;6.80;3.60;;;1.90;99.90;;;;;;5073028;28;20028;-68
2022/01/22 01:43:05;;;;;;;6.35;3.72;;;1.90;99.90;;;;;;5072433;28;20029;-67
2022/01/22 01:45:31;;;;;;;7.97;3.78;;;1.90;99.90;;;;;;5073092;28;20039;-68
2022/01/22 01:48:02;;;;;;;5.63;3.35;;;1.90;99.90;;;;;;5054440;28;20036;-67
2022/01/22 01:50:30;;;;;;;5.72;3.75;;;1.90;99.90;;;;;;5072947;28;20038;-67
2022/01/22 01:55:47;;;;;;;4.40;3.22;;;1.90;99.90;;;;;;5072671;28;20080;-67
2022/01/22 01:58:13;;;;;;;5.20;3.13;;;1.90;99.90;;;;;;5072512;28;20029;-67
2022/01/22 02:00:39;;;;;;;6.55;3.85;;;1.90;99.90;;;;;;5073082;28;20020;-67
2022/01/22 02:03:05;;;;;;;6.15;3.13;;;1.90;99.90;;;;;;5054272;28;20036;-67
2022/01/22 02:05:33;;;;;;;4.20;3.08;;;1.80;99.90;;;;;;5072714;28;20120;-67
2022/01/22 02:07:59;;;;;;;4.68;3.47;;;1.80;99.90;;;;;;5054577;28;20028;-67
2022/01/22 02:10:28;;;;;;;4.50;3.47;;;1.90;99.90;;;;;;5054777;28;20103;-67
2022/01/22 02:23:42;;;;;;;6.30;3.15;;;1.90;99.90;;;;;;5072579;28;20038;-67
2022/01/22 02:26:09;;;;;;;6.15;3.30;;;1.90;99.90;;;;;;5071980;28;20032;-67
2022/01/22 02:28:35;;;;;;;4.53;3.00;;;1.90;99.90;;;;;;5072123;28;20119;-67
2022/01/22 02:31:11;;;;;;;5.25;3.03;;;1.90;99.90;;;;;;5071804;28;20032;-67
2022/01/22 02:34:05;;;;;;;3.20;2.70;;;1.90;99.90;;;;;;5072384;28;20409;-67
2022/01/22 02:36:55;;;;;;;8.18;3.10;;;1.90;99.90;;;;;;5072413;28;20025;-67
2022/01/22 02:39:23;;;;;;;3.80;2.65;;;1.90;99.90;;;;;;5071457;28;20075;-67
2022/01/22 02:41:51;;;;;;;3.50;2.80;;;1.90;99.90;;;;;;5072318;28;20031;-66
2022/01/22 02:44:43;;;;;;;3.38;3.05;;;1.90;99.90;;;;;;5072220;28;20028;-67
2022/01/22 02:47:09;;;;;;;5.45;3.17;;;1.90;99.90;;;;;;5071511;28;20462;-67
2022/01/22 02:49:36;;;;;;;3.05;2.42;;;1.80;99.90;;;;;;5072059;28;20078;-67
2022/01/22 02:52:07;;;;;;;3.60;2.58;;;1.80;99.90;;;;;;5071658;28;20448;-68
2022/01/22 02:54:34;;;;;;;7.50;3.05;;;1.80;99.90;;;;;;5072176;28;20048;-68
2022/01/22 02:57:00;;;;;;;6.43;2.80;;;1.70;99.90;;;;;;5071192;28;20561;-67
2022/01/22 02:59:26;;;;;;;3.67;2.80;;;1.70;99.90;;;;;;5071718;28;20041;-67
2022/01/22 03:01:53;;;;;;;6.65;3.08;;;1.70;99.90;;;;;;5071605;28;20077;-67
2022/01/22 03:04:19;;;;;;;7.97;2.83;;;1.60;99.90;;;;;;5072053;28;20036;-68
2022/01/22 03:06:46;;;;;;;4.78;3.08;;;1.60;99.90;;;;;;5071776;28;20025;-68
2022/01/22 03:09:15;;;;;;;3.60;2.65;;;1.60;99.90;;;;;;5071501;28;20033;-68
2022/01/22 03:11:57;;;;;;;3.83;2.42;;;1.60;99.90;;;;;;5071595;28;20603;-68
2022/01/22 03:27:34;;;;;;;2.88;1.88;;;1.50;99.90;;;;;;5071477;28;20032;-67
2022/01/22 03:30:00;;;;;;;2.13;1.75;;;1.60;99.90;;;;;;5071567;28;20447;-67
2022/01/22 03:32:31;;;;;;;1.85;1.35;;;1.60;99.90;;;;;;5071699;28;20112;-67
2022/01/22 03:35:01;;;;;;;2.47;1.83;;;1.70;99.90;;;;;;5071351;28;20020;-68
2022/01/22 03:37:27;;;;;;;2.00;1.50;;;1.70;99.90;;;;;;5071953;28;20025;-67
2022/01/22 03:39:55;;;;;;;2.80;1.60;;;1.70;99.90;;;;;;5071568;28;20043;-66
2022/01/22 03:42:21;;;;;;;2.55;1.80;;;1.70;99.90;;;;;;5074536;28;20055;-67
2022/01/22 03:44:47;;;;;;;1.77;1.67;;;1.80;99.90;;;;;;5075290;28;20108;-66
2022/01/22 03:47:13;;;;;;;2.78;1.58;;;1.80;99.90;;;;;;5074706;28;20100;-67
2022/01/22 03:49:39;;;;;;;2.13;1.70;;;1.80;99.90;;;;;;5075284;28;20028;-67
2022/01/22 03:52:05;;;;;;;2.50;1.90;;;1.80;99.90;;;;;;5074686;28;20025;-68
2022/01/22 03:54:30;;;;;;;2.47;1.70;;;1.80;99.90;;;;;;5075152;28;20028;-68
2022/01/22 03:56:56;;;;;;;2.20;1.42;;;1.80;99.90;;;;;;5074221;28;20052;-67
2022/01/22 03:59:22;;;;;;;2.58;1.52;;;1.80;99.90;;;;;;5075050;28;20039;-68
2022/01/22 04:04:25;;;;;;;2.95;1.40;;;1.80;99.90;;;;;;5074465;28;20024;-68
2022/01/22 04:09:40;;;;;;;3.97;1.67;;;1.80;99.90;;;;;;5075013;28;20071;-67
2022/01/22 04:12:06;;;;;;;2.10;1.73;;;1.80;99.90;;;;;;5074376;28;20025;-67
2022/01/22 04:14:34;;;;;;;1.52;1.42;;;1.80;99.90;;;;;;5074996;28;20037;-67
2022/01/22 04:17:24;;;;;;;3.15;1.30;;;1.80;99.90;;;;;;5074264;28;20021;-67
2022/01/22 04:25:22;;;;;;;2.97;1.45;;;1.70;99.90;;;;;;5073930;28;20127;-67
2022/01/22 04:27:48;;;;;;;3.05;1.60;;;1.60;99.90;;;;;;5074682;28;20029;-67
2022/01/22 04:30:14;;;;;;;3.97;1.65;;;1.50;99.90;;;;;;5073921;28;20123;-67
2022/01/22 04:32:40;;;;;;;1.80;1.50;;;1.50;99.90;;;;;;5074500;28;20067;-66
2022/01/22 04:35:06;;;;;;;2.47;1.20;;;1.50;99.90;;;;;;5073877;28;20080;-67
2022/01/22 04:37:32;;;;;;;1.73;1.48;;;1.40;99.90;;;;;;5074371;28;20029;-67
2022/01/22 04:39:57;;;;;;;2.38;1.60;;;1.50;99.90;;;;;;5074212;28;20056;-67
2022/01/22 04:42:25;;;;;;;3.55;1.42;;;1.50;99.90;;;;;;5073426;28;20021;-67
2022/01/22 04:45:08;;;;;;;2.08;1.60;;;1.50;99.90;;;;;;5074243;28;20025;-67
2022/01/22 04:55:44;;;;;;;3.28;1.63;;;1.50;99.90;;;;;;5073541;28;20557;-66
2022/01/22 04:58:10;;;;;;;2.00;1.20;;;1.50;99.90;;;;;;5073384;28;20028;-67
2022/01/22 05:00:39;;;;;;;1.40;1.30;;;1.50;99.90;;;;;;5073882;28;20427;-67
2022/01/22 05:03:05;;;;;;;2.78;1.45;;;1.50;99.90;;;;;;5073239;28;20039;-67
2022/01/22 05:05:31;;;;;;;1.85;1.38;;;1.60;99.90;;;;;;5073732;28;20032;-67
2022/01/22 05:07:57;;;;;;;1.55;1.20;;;1.60;99.90;;;;;;5073445;28;20032;-68
2022/01/22 05:10:23;;;;;;;5.07;1.27;;;1.60;99.90;;;;;;5072855;28;20028;-67
2022/01/22 05:12:49;;;;;;;1.40;1.30;;;1.60;99.90;;;;;;5073860;28;20025;-67
2022/01/22 05:15:17;;;;;;;4.28;1.20;;;1.60;99.90;;;;;;5073101;28;20546;-67
2022/01/22 05:17:44;;;;;;;2.30;1.40;;;1.60;99.90;;;;;;5073438;28;20032;-67
2022/01/22 05:20:35;;;;;;;2.60;1.27;;;1.60;99.90;;;;;;5072848;28;20043;-67
2022/01/22 05:23:07;;;;;;;2.75;1.30;;;1.60;99.90;;;;;;5073015;28;20028;-67
2022/01/22 05:25:39;;;;;;;3.20;1.50;;;1.60;99.90;;;;;;5073495;28;20032;-67
2022/01/22 05:38:34;;;;;;;1.63;1.30;;;1.60;99.90;;;;;;5073092;28;20607;-67
2022/01/22 05:40:59;;;;;;;2.47;1.50;;;1.50;99.90;;;;;;5072808;28;20024;-67
2022/01/22 05:43:25;;;;;;;3.67;1.50;;;1.60;99.90;;;;;;5072529;28;20481;-68
2022/01/22 05:45:52;;;;;;;1.20;1.10;;;1.60;99.90;;;;;;5073069;28;20035;-67
2022/01/22 05:48:17;;;;;;;4.35;1.23;;;1.60;99.90;;;;;;5072502;28;20032;-67
2022/01/22 05:53:26;;;;;;;1.48;1.10;;;1.70;99.90;;;;;;5072341;28;20032;-68
2022/01/22 06:01:11;;;;;;;2.28;1.98;;;1.70;99.90;;;;;;5072051;28;20244;-67
2022/01/22 06:03:38;;;;;;;2.17;1.60;;;1.60;99.90;;;;;;5071894;28;20045;-66
2022/01/22 06:06:04;;;;;;;2.65;1.70;;;1.60;99.90;;;;;;5072653;28;20070;-67
2022/01/22 06:08:33;;;;;;;3.97;2.05;;;1.60;99.90;;;;;;5072352;28;20031;-66
2022/01/22 06:11:06;;;;;;;2.28;1.75;;;1.60;99.90;;;;;;5072669;28;20037;-66
2022/01/22 06:13:43;;;;;;;2.97;1.80;;;1.60;99.90;;;;;;5072289;28;20028;-66
2022/01/22 06:16:13;;;;;;;1.92;1.70;;;1.60;99.90;;;;;;5072440;28;20044;-67
2022/01/22 06:18:39;;;;;;;2.58;2.33;;;1.60;99.90;;;;;;5072427;28;20025;-67
2022/01/22 06:21:05;;;;;;;2.67;2.15;;;1.60;99.90;;;;;;5072242;28;20485;-68
2022/01/22 06:23:31;;;;;;;3.50;2.20;;;1.60;99.90;;;;;;5071511;28;20033;-67
2022/01/22 06:26:00;;;;;;;3.45;2.20;;;1.60;99.90;;;;;;5071905;28;20386;-67
2022/01/22 06:28:30;;;;;;;2.22;2.03;;;1.60;99.90;;;;;;5071730;28;20050;-67
2022/01/22 06:30:56;;;;;;;5.40;2.45;;;1.60;99.90;;;;;;5072239;28;20052;-67
2022/01/22 06:33:22;;;;;;;4.28;2.40;;;1.60;99.90;;;;;;5072120;28;20369;-65
2022/01/22 06:35:48;;;;;;;4.50;2.40;;;1.70;99.90;;;;;;5072234;28;20025;-66
2022/01/22 06:38:14;;;;;;;2.90;2.60;;;1.70;99.90;;;;;;5072104;28;20469;-67
2022/01/22 06:43:05;;;;;;;3.22;2.72;;;1.70;99.90;;;;;;5072264;28;20399;-67
2022/01/22 06:45:31;;;;;;;4.57;2.80;;;1.70;99.90;;;;;;5071564;28;20112;-66
2022/01/22 06:47:57;;;;;;;4.38;2.97;;;1.70;99.90;;;;;;5072048;28;20477;-67
2022/01/22 06:50:23;;;;;;;2.78;2.33;;;1.70;99.90;;;;;;5071575;28;20112;-67
2022/01/22 06:52:56;;;;;;;4.35;3.10;;;1.70;99.90;;;;;;5054037;28;20362;-67
2022/01/22 06:55:33;;;;;;;3.30;2.65;;;1.70;99.90;;;;;;5071136;28;20064;-67
2022/01/22 06:57:59;;;;;;;3.97;2.63;;;1.70;99.90;;;;;;5071929;28;20087;-67
2022/01/22 07:00:25;;;;;;;4.07;2.83;;;1.70;99.90;;;;;;5071104;28;20056;-66
2022/01/22 07:02:50;;;;;;;2.45;2.25;;;1.70;99.90;;;;;;5070751;28;20056;-68
2022/01/22 07:05:16;;;;;;;4.05;2.80;;;1.70;99.90;;;;;;5071291;28;20433;-67
2022/01/22 07:07:41;;;;;;;3.28;2.78;;;1.80;99.90;;;;;;5071453;28;20035;-67
2022/01/22 07:10:07;;;;;;;2.58;2.28;;;1.80;99.90;;;;;;5071723;28;20366;-67
2022/01/22 07:12:33;;;;;;;3.13;2.83;;;1.80;99.90;;;;;;5071514;28;20091;-67
2022/01/22 07:14:59;;;;;;;3.28;2.55;;;1.80;99.90;;;;;;5071463;28;20028;-67
2022/01/22 07:17:24;;;;;;;3.83;3.08;;;1.90;99.90;;;;;;5074177;28;20055;-69
2022/01/22 07:19:52;;;;;;;2.58;2.38;;;1.90;99.90;;;;;;5075264;28;20025;-68
2022/01/22 07:25:03;;;;;;;3.03;2.40;;;1.90;99.90;;;;;;5075654;28;20439;-68
2022/01/22 07:27:28;;;;;;;2.28;2.08;;;2.00;99.90;;;;;;5074876;28;20028;-67
2022/01/22 07:29:54;;;;;;;2.70;2.30;;;2.00;99.90;;;;;;5057456;28;20108;-67
2022/01/22 07:32:30;;;;;;;2.03;1.90;;;2.00;99.90;;;;;;5074773;28;20111;-67
2022/01/22 07:34:56;;;;;;;2.88;2.00;;;2.10;99.90;;;;;;5075284;28;20108;-67
2022/01/22 07:37:22;;;;;;;1.85;1.65;;;2.10;99.90;;;;;;5074473;28;20553;-67
2022/01/22 07:39:48;;;;;;;1.73;1.60;;;2.20;99.90;;;;;;5074835;28;20071;-67
2022/01/22 07:42:13;;;;;;;2.83;1.77;;;2.20;99.90;;;;;;5056948;28;20057;-67
2022/01/22 07:44:39;;;;;;;2.05;1.80;;;2.20;99.90;;;;;;5075028;28;20027;-67
2022/01/22 07:47:05;;;;;;;2.20;2.00;;;2.30;99.90;;;;;;5075195;28;20028;-67
2022/01/22 07:49:30;;;;;;;2.30;1.70;;;2.30;99.90;;;;;;5056593;28;20485;-67
2022/01/22 07:51:56;;;;;;;1.90;1.65;;;2.30;99.90;;;;;;5075020;28;20119;-67
2022/01/22 07:54:23;;;;;;;1.95;1.50;;;2.40;99.90;;;;;;5074700;28;20025;-67
2022/01/22 07:56:49;;;;;;;2.15;1.60;;;2.40;99.90;;;;;;5075437;28;20056;-67
2022/01/22 07:59:15;;;;;;;2.20;2.00;;;2.50;99.90;;;;;;5074514;28;20055;-67
2022/01/22 08:01:40;;;;;;;2.55;1.58;;;2.60;99.90;;;;;;5074783;28;20090;-68
2022/01/22 08:04:06;;;;;;;1.90;1.70;;;2.60;99.90;;;;;;5074864;28;20060;-68
2022/01/22 08:06:32;;;;;;;2.40;1.55;;;2.70;99.90;;;;;;5074315;28;20024;-66
2022/01/22 08:08:57;;;;;;;1.65;1.55;;;2.70;99.90;;;;;;5074788;28;20033;-67
2022/01/22 08:11:23;;;;;;;1.83;1.45;;;2.80;99.90;;;;;;5073791;28;20207;-67
2022/01/22 08:13:49;;;;;;;2.42;1.60;;;2.80;99.90;;;;;;5074238;28;20475;-67
2022/01/22 08:16:15;;;;;;;1.70;1.40;;;2.90;99.90;;;;;;5074750;28;20020;-67
2022/01/22 08:18:40;;;;;;;1.48;1.35;;;2.90;99.90;;;;;;5074403;28;20385;-67
2022/01/22 08:21:06;;;;;;;2.03;1.55;;;3.00;99.90;;;;;;5074434;28;20131;-67
2022/01/22 08:23:33;;;;;;;2.95;1.80;;;3.00;99.90;;;;;;5073991;28;20036;-67
2022/01/22 08:25:59;;;;;;;2.53;1.40;;;3.00;99.90;;;;;;5074328;28;20472;-67
2022/01/22 08:36:41;;;;;;;1.90;1.40;;;3.10;99.90;;;;;;5074105;28;20039;-67
2022/01/22 08:39:06;;;;;;;2.03;1.52;;;3.10;99.90;;;;;;5074275;28;20115;-67
2022/01/22 08:41:33;;;;;;;1.60;1.45;;;3.10;99.90;;;;;;5073690;28;20433;-67
2022/01/22 08:43:59;;;;;;;1.83;1.48;;;3.10;99.90;;;;;;5074236;28;20395;-67
2022/01/22 08:46:25;;;;;;;1.55;1.42;;;3.10;99.90;;;;;;5073681;28;20453;-72
2022/01/22 08:48:51;;;;;;;4.07;1.35;;;3.20;99.90;;;;;;5073971;28;20115;-68
2022/01/22 08:51:17;;;;;;;1.75;1.42;;;3.20;99.90;;;;;;5073897;28;20024;-68
2022/01/22 08:53:43;;;;;;;2.25;1.52;;;3.20;99.90;;;;;;5074053;28;20107;-67
2022/01/22 08:56:09;;;;;;;1.55;1.42;;;3.30;99.90;;;;;;5073517;28;20079;-67
2022/01/22 08:58:36;;;;;;;2.30;1.55;;;3.30;99.90;;;;;;5073186;28;20568;-67
2022/01/22 09:01:03;;;;;;;2.72;1.80;;;3.30;99.90;;;;;;5074119;28;20056;-67
2022/01/22 09:03:29;;;;;;;2.55;1.50;;;3.30;99.90;;;;;;5073405;28;20032;-67
2022/01/22 09:05:56;;;;;;;1.92;1.60;;;3.40;99.90;;;;;;5073712;28;20095;-67
2022/01/22 09:08:24;;;;;;;2.72;1.75;;;3.40;99.90;;;;;;5073212;28;20032;-68
2022/01/22 09:10:50;;;;;;;2.92;1.85;;;3.40;99.90;;;;;;5073475;28;20354;-69
2022/01/22 09:13:16;;;;;;;2.83;1.95;;;3.50;99.90;;;;;;5073694;28;20484;-69
2022/01/22 09:15:42;;;;;;;3.05;1.73;;;3.50;99.90;;;;;;5072687;28;20085;-68
2022/01/22 09:18:08;;;;;;;2.35;1.75;;;3.60;99.90;;;;;;5073281;28;20392;-67
2022/01/22 09:23:07;;;;;;;1.77;1.40;;;3.70;99.90;;;;;;5073222;28;20377;-67
2022/01/22 09:25:33;;;;;;;1.60;1.40;;;3.80;99.90;;;;;;5054813;28;20025;-68
2022/01/22 09:27:59;;;;;;;2.65;1.55;;;3.80;99.90;;;;;;5072906;28;20059;-68
2022/01/22 09:30:25;;;;;;;2.75;1.70;;;3.90;99.90;;;;;;5054890;28;20059;-67
2022/01/22 09:32:51;;;;;;;2.58;1.80;;;3.90;99.90;;;;;;5073493;28;20103;-67
2022/01/22 09:35:17;;;;;;;2.88;1.40;;;4.00;99.90;;;;;;5072230;28;20027;-68
2022/01/22 09:37:43;;;;;;;2.05;1.48;;;4.00;99.90;;;;;;5072221;28;20024;-68
2022/01/22 09:40:10;;;;;;;3.00;1.55;;;4.10;99.90;;;;;;5072288;28;20029;-68
2022/01/22 09:42:35;;;;;;;2.85;1.42;;;4.10;99.90;;;;;;5054636;28;20032;-68
2022/01/22 09:45:03;;;;;;;2.20;1.65;;;4.20;99.90;;;;;;5073308;28;20432;-68
2022/01/22 09:47:29;;;;;;;3.42;1.55;;;4.20;99.90;;;;;;5072426;28;20032;-68
2022/01/22 09:49:55;;;;;;;4.40;1.67;;;4.30;99.90;;;;;;5072881;28;20107;-68
2022/01/22 09:52:22;;;;;;;2.15;1.35;;;4.30;99.90;;;;;;5072792;28;20036;-68
2022/01/22 09:54:48;;;;;;;2.45;1.80;;;4.20;99.90;;;;;;5073026;28;20032;-67
2022/01/22 09:57:14;;;;;;;2.42;1.63;;;4.20;99.90;;;;;;5072318;28;20024;-69
2022/01/22 09:59:40;;;;;;;1.88;1.58;;;4.20;99.90;;;;;;5071811;28;20037;-69
2022/01/22 10:02:16;;;;;;;2.20;1.55;;;4.20;99.90;;;;;;5072651;28;20422;-68
2022/01/22 10:04:45;;;;;;;2.25;1.45;;;4.20;99.90;;;;;;5072288;28;20200;-68
2022/01/22 10:07:17;;;;;;;4.15;1.77;;;4.30;99.90;;;;;;5054796;28;20051;-68
2022/01/22 10:10:01;;;;;;;1.40;1.15;;;4.30;99.90;;;;;;5071312;28;20330;-68
2022/01/22 10:12:29;;;;;;;2.30;1.35;;;4.30;99.90;;;;;;5071667;28;20021;-68
2022/01/22 10:15:06;;;;;;;2.20;1.40;;;4.30;99.90;;;;;;5072428;28;20029;-69
2022/01/22 10:17:38;;;;;;;3.97;1.70;;;4.30;99.90;;;;;;5071853;28;20033;-68
2022/01/22 10:20:24;;;;;;;2.42;1.40;;;4.30;99.90;;;;;;5072351;28;20028;-68
2022/01/22 10:22:55;;;;;;;1.85;1.60;;;4.40;99.90;;;;;;5071872;28;20489;-67
2022/01/22 10:25:26;;;;;;;1.88;1.48;;;4.40;99.90;;;;;;5072413;28;20035;-67
2022/01/22 10:27:55;;;;;;;;;;;4.40;99.90;;;;;;5072961;28;20048;-68
2022/01/22 10:30:22;;;;;;;3.70;1.05;;;4.40;99.90;;;;;;5072109;28;20055;-67
2022/01/22 10:35:17;;;;;;;2.58;1.50;;;4.50;99.90;;;;;;5072345;28;20079;-68
2022/01/22 10:37:46;;;;;;;2.75;1.52;;;4.50;99.90;;;;;;5071800;28;20036;-68
2022/01/22 10:40:23;;;;;;;1.85;1.17;;;4.50;99.90;;;;;;5072004;28;20037;-68
2022/01/22 10:42:50;;;;;;;4.32;1.65;;;4.50;99.90;;;;;;5053866;28;20424;-68
2022/01/22 10:45:24;;;;;;;2.28;1.52;;;4.60;99.90;;;;;;5071967;28;20028;-68
2022/01/22 10:48:10;;;;;;;1.90;1.35;;;4.60;99.90;;;;;;5071815;28;20024;-68
2022/01/22 10:50:36;;;;;;;1.33;1.23;;;4.60;99.90;;;;;;5071324;28;20039;-68
2022/01/22 10:53:01;;;;;;;2.90;1.40;;;4.70;99.90;;;;;;5071554;28;20028;-68
2022/01/22 10:55:27;;;;;;;2.38;1.55;;;4.70;99.00;;;;;;5071264;28;20144;-68
2022/01/22 10:58:06;;;;;;;1.25;1.13;;;4.70;96.90;;;;;;5072002;28;20024;-68
2022/01/22 11:00:32;;;;;;;2.45;1.20;;;4.80;95.60;;;;;;5071580;28;20043;-67
2022/01/22 11:02:57;;;;;;;3.17;1.80;;;4.80;93.70;;;;;;5053951;28;20036;-67
2022/01/22 11:05:38;;;;;;;2.00;1.10;;;4.80;92.70;;;;;;5072070;28;20098;-68
2022/01/22 11:08:13;;;;;;;2.03;1.23;;;4.90;91.20;;;;;;5071867;28;20028;-67
2022/01/22 11:10:41;;;;;;;1.60;1.20;;;4.90;90.40;;;;;;5071314;28;20028;-68
2022/01/22 11:13:07;;;;;;;2.15;1.08;;;5.00;90.60;;;;;;5071855;28;20025;-67
2022/01/22 11:15:34;;;;;;;1.60;1.10;;;5.20;90.80;;;;;;5071403;28;20060;-67
2022/01/22 11:18:02;;;;;;;1.10;0.90;;;5.30;89.90;;;;;;5071911;28;20025;-67
2022/01/22 11:20:29;;;;;;;2.17;1.20;;;5.50;88.50;;;;;;5071065;28;20513;-67
2022/01/22 11:22:56;;;;;;;2.20;1.00;;;5.70;86.70;;;;;;5071673;28;20033;-67
2022/01/22 11:25:22;;;;;;;1.77;1.20;;;5.80;85.00;;;;;;5071658;28;20423;-67
2022/01/22 11:27:49;;;;;;;1.83;1.30;;;5.70;81.20;;;;;;5070920;28;20178;-66
2022/01/22 11:30:17;;;;;;;1.17;1.00;;;5.70;80.60;;;;;;5071681;28;20033;-67
2022/01/22 11:33:03;;;;;;;1.77;1.25;;;5.60;80.80;;;;;;5071083;28;20036;-68
2022/01/22 11:35:40;;;;;;;1.48;1.20;;;5.60;80.90;;;;;;5071174;28;20123;-67
2022/01/22 11:38:12;;;;;;;1.65;1.40;;;5.60;81.10;;;;;;5071390;28;20035;-69
2022/01/22 11:40:38;;;;;;;1.50;1.35;;;5.50;80.60;;;;;;5052951;28;20035;-65
2022/01/22 11:43:07;;;;;;;2.83;1.40;;;5.40;81.60;;;;;;5053610;28;20032;-64
2022/01/22 11:45:46;;;;;;;4.00;1.40;;;5.30;80.20;;;;;;5071016;28;20134;-69
2022/01/22 11:48:27;;;;;;;1.85;1.17;;;5.20;81.50;;;;;;5071347;28;20056;-70
2022/01/22 11:50:54;;;;;;;1.93;1.30;;;5.10;84.00;;;;;;5053029;28;20029;-69
2022/01/22 11:53:34;;;;;;;1.70;1.35;;;5.00;86.90;;;;;;5070869;28;20674;-71
2022/01/22 11:56:09;;;;;;;1.65;1.20;;;4.90;88.80;;;;;;5071250;28;20055;-69
2022/01/22 11:58:57;;;;;;;1.65;1.20;;;4.80;89.00;;;;;;5070587;28;20028;-68
2022/01/22 12:01:50;;;;;;;2.63;1.58;;;4.70;90.40;;;;;;5071341;28;20074;-68
2022/01/22 12:04:17;;;;;;;1.60;1.17;;;4.50;91.20;;;;;;5068487;28;20029;-67
2022/01/22 12:07:04;;;;;;;1.95;1.15;;;4.40;91.90;;;;;;5074004;28;20025;-69
2022/01/22 12:10:04;;;;;;;1.55;1.17;;;4.30;92.10;;;;;;5074728;28;20039;-68
2022/01/22 12:15:39;;;;;;;2.95;1.63;;;4.20;92.60;;;;;;5074567;28;20062;-66
2022/01/22 12:18:11;;;;;;;1.63;1.23;;;4.10;92.90;;;;;;5073921;28;20100;-67
2022/01/22 12:23:03;;;;;;;2.92;1.80;;;4.00;92.80;;;;;;5074531;28;20268;-70
2022/01/22 12:25:29;;;;;;;2.22;1.70;;;4.00;93.20;;;;;;5074619;28;20029;-71
2022/01/22 12:27:55;;;;;;;2.28;1.65;;;4.00;93.10;;;;;;5073779;28;20028;-70
2022/01/22 12:30:36;;;;;;;3.80;1.65;;;3.90;93.00;;;;;;5074234;28;20103;-70
2022/01/22 12:33:05;;;;;;;2.55;1.60;;;3.90;93.00;;;;;;5074249;28;20032;-67
2022/01/22 12:35:45;;;;;;;2.78;1.80;;;3.80;93.00;;;;;;5074224;28;20112;-67
2022/01/22 12:41:25;;;;;;;5.15;2.10;;;3.80;93.50;;;;;;5074139;28;20033;-69
2022/01/22 12:43:51;;;;;;;2.00;1.70;;;3.70;94.10;;;;;;5073580;28;20024;-70
2022/01/22 12:46:17;;;;;;;3.00;1.60;;;3.70;94.80;;;;;;5074032;28;20103;-70
2022/01/22 12:48:49;;;;;;;4.03;1.77;;;3.60;95.10;;;;;;5073505;28;20108;-70
2022/01/22 12:51:14;;;;;;;2.63;1.80;;;3.60;95.40;;;;;;5073695;28;20103;-70
2022/01/22 12:53:48;;;;;;;3.95;1.98;;;3.50;95.90;;;;;;5073401;28;20104;-70
2022/01/22 12:56:49;;;;;;;3.97;2.10;;;3.50;96.00;;;;;;5073568;28;20044;-67
2022/01/22 12:59:11;;;;;;;2.30;1.85;;;3.50;96.20;;;;;;5073298;28;20032;-68
2022/01/22 13:01:42;;;;;;;2.80;1.65;;;3.50;96.10;;;;;;5073448;28;20443;-68
2022/01/22 13:04:09;;;;;;;2.60;1.70;;;3.50;96.10;;;;;;5073865;28;20031;-69
2022/01/22 13:06:44;;;;;;;3.72;1.88;;;3.40;95.50;;;;;;5073443;28;20375;-67
2022/01/22 13:09:11;;;;;;;4.68;1.92;;;3.40;94.80;;;;;;5073726;28;20108;-67
2022/01/22 13:11:45;;;;;;;5.30;1.70;;;3.40;94.50;;;;;;5072945;28;20381;-67
2022/01/22 13:14:13;;;;;;;3.60;1.83;;;3.40;94.40;;;;;;5072336;28;20032;-66
2022/01/22 13:16:54;;;;;;;3.00;1.70;;;3.50;94.30;;;;;;5073012;28;20111;-68
2022/01/22 13:19:20;;;;;;;;;;;3.50;94.30;;;;;;5074155;28;20026;-68
2022/01/22 13:21:56;;;;;;;3.70;1.80;;;3.50;94.30;;;;;;5073090;28;20388;-69
2022/01/22 13:24:25;;;;;;;3.72;2.20;;;3.50;93.90;;;;;;5073423;28;20024;-68
2022/01/22 13:27:00;;;;;;;2.40;1.80;;;3.50;93.60;;;;;;5072750;28;20032;-71
2022/01/22 13:29:39;;;;;;;3.55;1.88;;;3.50;93.50;;;;;;5073306;28;20066;-70
2022/01/22 13:32:27;;;;;;;2.78;1.77;;;3.40;93.10;;;;;;5073072;28;20085;-66
2022/01/22 13:35:06;;;;;;;3.50;1.88;;;3.40;93.20;;;;;;5072698;28;20365;-67
2022/01/22 13:48:34;;;;;;;4.05;2.10;;;3.50;93.00;;;;;;5072824;28;20760;-69
2022/01/22 13:51:02;;;;;;;4.70;1.98;;;3.50;92.90;;;;;;5054068;28;20042;-70
2022/01/22 13:53:28;;;;;;;3.10;1.60;;;3.60;93.10;;;;;;5072720;28;20071;-69
2022/01/22 13:56:10;;;;;;;2.38;1.90;;;3.60;93.10;;;;;;5072179;28;20489;-69
2022/01/22 13:58:36;;;;;;;3.08;1.85;;;3.60;92.80;;;;;;5072434;28;20032;-69
2022/01/22 14:01:40;;;;;;;2.60;1.75;;;3.60;92.70;;;;;;5072156;28;20086;-70
2022/01/22 14:04:07;;;;;;;4.47;2.50;;;3.60;92.10;;;;;;5072464;28;20024;-66
2022/01/22 14:06:34;;;;;;;2.78;2.10;;;3.60;92.00;;;;;;5072641;28;20107;-66
2022/01/22 14:09:21;;;;;;;3.20;1.90;;;3.70;91.90;;;;;;5071950;28;20047;-67
2022/01/22 14:12:03;;;;;;;3.25;2.05;;;3.70;91.90;;;;;;5071895;28;20044;-69
2022/01/22 14:14:31;;;;;;;3.05;2.05;;;3.70;91.80;;;;;;5072320;28;20029;-70
2022/01/22 14:17:09;;;;;;;5.10;2.28;;;3.60;91.80;;;;;;5071924;28;20020;-69
2022/01/22 14:19:35;;;;;;;2.38;1.73;;;3.70;92.10;;;;;;5072247;28;20024;-67
2022/01/22 14:22:00;;;;;;;2.78;1.98;;;3.70;92.10;;;;;;5071596;28;20036;-67
2022/01/22 14:24:30;;;;;;;3.38;1.80;;;3.70;92.20;;;;;;5071487;28;20025;-67
2022/01/22 14:26:56;;;;;;;2.92;2.10;;;3.70;92.00;;;;;;5071396;28;20027;-66
2022/01/22 14:29:22;;;;;;;3.90;2.28;;;3.60;91.60;;;;;;5072558;28;20039;-68
2022/01/22 14:31:54;;;;;;;3.10;1.75;;;3.70;91.50;;;;;;5071645;28;20029;-69
2022/01/22 14:34:39;;;;;;;3.88;1.85;;;3.60;91.30;;;;;;5071268;28;20024;-69
2022/01/22 14:37:07;;;;;;;6.07;2.80;;;3.70;91.60;;;;;;5071876;28;20346;-68
2022/01/22 14:45:33;;;;;;;4.38;2.10;;;3.70;91.70;;;;;;5067739;28;20103;-69
2022/01/22 14:48:01;;;;;;;2.42;1.90;;;3.70;91.80;;;;;;5053878;28;20111;-70
2022/01/22 14:50:28;;;;;;;2.65;1.73;;;3.70;91.40;;;;;;5071922;28;20112;-69
2022/01/22 14:53:00;;;;;;;3.13;1.90;;;3.70;91.10;;;;;;5053558;28;20035;-69
2022/01/22 14:55:26;;;;;;;;;;;3.70;90.90;;;;;;5072348;28;20064;-70
2022/01/22 14:57:53;;;;;;;5.55;2.70;;;3.70;90.70;;;;;;5071589;28;19961;-70
2022/01/22 15:00:19;;;;;;;2.75;2.05;;;3.60;90.50;;;;;;5071642;28;20036;-70
2022/01/22 15:03:04;;;;;;;2.67;2.08;;;3.60;90.50;;;;;;5071241;28;20051;-69
2022/01/22 15:05:29;;;;;;;4.30;2.08;;;3.60;90.30;;;;;;5071976;28;20038;-71
2022/01/22 15:07:56;;;;;;;3.13;1.70;;;3.60;90.30;;;;;;5071332;28;20020;-70
2022/01/22 15:10:23;;;;;;;3.03;2.00;;;3.60;90.20;;;;;;5071742;28;20029;-70
2022/01/22 15:12:50;;;;;;;3.45;2.08;;;3.60;89.90;;;;;;5071379;28;20025;-70
2022/01/22 15:15:18;;;;;;;2.63;1.90;;;3.60;89.00;;;;;;5071986;28;20028;-74